Huvudsida
METAR-TAF:

METAR-TAF

Flygplatser :

Ørlands, Norge

latitud: 63-42N, longitud: 009-36E, höjd: 0 m

Aktuellt väderrapport

Denna rapport gjordes för 29 minuter sedan, klockan 08:20 UTC
Vind 14 kt från ost/sydost
Temperatur -3°C
Fuktighet 86%
Tryck 999 hPa
Sikt 10 km eller mer
Få moln på en höjd av 3000 ft

METAR: ENOL 250820Z 12014KT 9999 FEW030 M03/M05 Q0999 NOSIG

Tid: 09:49 (08:49 UTC)

Väderprognos

Prognos gäller från 25 kl. 06 UTC till 26 kl. 06 UTC
Vind 8 kt från sydost
Sikt 10 km eller mer
Brutna moln på en höjd av 3000 ft
Sannolikhet 30% :
Temporärt
från 25 kl. 15 UTC till 25 kl. 21 UTC
Sikt: 3000 m
på en höjd av 1200 ft
snöbyar, regn
Blir
från 25 kl. 18 UTC till 25 kl. 21 UTC
Vind 10 kt från väst/sydväst

TAF: ENOL 2506/2606 14008KT 9999 BKN030 PROB30 TEMPO 2515/2521 3000 SHSNRA VV012 BECMG 2518/2521 24010KT

Aktuella väderrapporter och prognoser från 4000 flygplatser (METAR- och TAF-rapporter).

De tillgängliga stationerna syns som gula och röda prickar på kartan.

För musen över prickarna för att se namnen på stationerna.

Klicka sedan för att få väderrapporter och prognoser.

För att ändra kartan: Klicka på de gröna knapparna med ett svart kors på för att zooma in; den gröna knappen med ett streck på för att zooma ut; eller på de gröna pilarna för angränsande kartor.


METAR-TAF: